Time;durP1;ratioP1;P1;durP2;ratioP2;P2;SDS_P1;SDS_P2;PMS_P1;PMS_P2;Temp;Humidity;BMP_temperature;BMP_pressure;BME280_temperature;BME280_humidity;BME280_pressure;Samples;Min_cycle;Max_cycle;Signal;HPM_P1;HPM_P2
2024/04/17 00:00:09;;;;;;;4.38;2.78;;;;;;;3.86;100.00;97449.19;6107850;19;20009;-76
2024/04/17 00:02:10;;;;;;;5.45;2.85;;;;;;;3.89;100.00;97466.84;6109794;19;19998;-77
2024/04/17 00:04:10;;;;;;;2.97;2.58;;;;;;;3.92;100.00;97463.38;6107529;19;20036;-76
2024/04/17 00:06:12;;;;;;;5.57;2.60;;;;;;;3.88;100.00;97463.28;6108511;19;20034;-75
2024/04/17 00:08:13;;;;;;;4.53;3.07;;;;;;;3.90;100.00;97457.50;6105311;19;20530;-76
2024/04/17 00:10:13;;;;;;;5.82;3.45;;;;;;;3.90;100.00;97452.81;6105668;19;20026;-76
2024/04/17 00:12:13;;;;;;;4.78;3.25;;;;;;;3.88;100.00;97463.28;6107926;19;20011;-76
2024/04/17 00:14:14;;;;;;;4.22;3.10;;;;;;;3.86;100.00;97464.81;6108485;19;20447;-76
2024/04/17 00:16:14;;;;;;;4.47;2.90;;;;;;;3.88;100.00;97466.03;6108475;19;20010;-76
2024/04/17 00:18:15;;;;;;;4.50;2.97;;;;;;;3.82;100.00;97467.50;6105787;19;20010;-76
2024/04/17 00:20:15;;;;;;;4.63;2.85;;;;;;;3.87;100.00;97464.44;6105077;19;20010;-77
2024/04/17 00:22:16;;;;;;;4.10;2.72;;;;;;;3.88;100.00;97465.25;6107997;19;20403;-76
2024/04/17 00:24:16;;;;;;;4.07;3.22;;;;;;;3.83;100.00;97458.13;6105590;19;20002;-76
2024/04/17 00:26:17;;;;;;;4.88;3.33;;;;;;;4.00;100.00;97469.81;6108145;19;20497;-76
2024/04/17 00:28:17;;;;;;;5.65;2.83;;;;;;;4.06;100.00;97465.66;6107170;19;20010;-76
2024/04/17 00:30:18;;;;;;;5.03;2.97;;;;;;;4.14;100.00;97465.44;6107462;19;20081;-76
2024/04/17 00:32:18;;;;;;;4.22;2.75;;;;;;;4.13;100.00;97463.81;6106145;19;20003;-76
2024/04/17 00:34:18;;;;;;;4.93;3.00;;;;;;;4.18;100.00;97473.69;6106632;19;20014;-75
2024/04/17 00:36:18;;;;;;;3.80;2.58;;;;;;;4.26;100.00;97471.91;6108123;19;20002;-76
2024/04/17 00:38:19;;;;;;;4.32;3.17;;;;;;;4.23;100.00;97471.47;6104353;19;20013;-76
2024/04/17 00:40:19;;;;;;;4.75;3.00;;;;;;;4.27;100.00;97462.53;6094727;19;20002;-76
2024/04/17 00:42:19;;;;;;;4.88;3.17;;;;;;;4.21;100.00;97465.53;6107536;19;20009;-76
2024/04/17 00:44:20;;;;;;;4.85;3.20;;;;;;;4.26;100.00;97475.44;6107404;19;19995;-76
2024/04/17 00:46:21;;;;;;;4.32;3.00;;;;;;;4.28;100.00;97467.63;6105648;19;23137;-77
2024/04/17 00:48:21;;;;;;;4.10;3.00;;;;;;;4.38;100.00;97469.00;6104883;19;20709;-75
2024/04/17 00:50:22;;;;;;;4.38;3.05;;;;;;;4.39;100.00;97476.88;6105359;19;20082;-75
2024/04/17 00:52:23;;;;;;;4.90;3.03;;;;;;;4.34;100.00;97471.69;6106339;19;20013;-76
2024/04/17 00:54:23;;;;;;;5.13;3.20;;;;;;;4.41;100.00;97476.50;6105126;19;19998;-75
2024/04/17 00:56:24;;;;;;;4.97;3.05;;;;;;;4.44;100.00;97484.00;6107891;19;20002;-76
2024/04/17 00:58:25;;;;;;;4.95;3.42;;;;;;;4.43;100.00;97477.72;6105446;19;20070;-77
2024/04/17 01:00:25;;;;;;;4.75;3.60;;;;;;;4.33;100.00;97472.84;6105015;19;20002;-76
2024/04/17 01:02:25;;;;;;;4.28;3.10;;;;;;;4.32;100.00;97470.47;6106075;19;20014;-76
2024/04/17 01:04:26;;;;;;;4.43;3.05;;;;;;;4.41;100.00;97477.28;6106959;19;20348;-75
2024/04/17 01:06:27;;;;;;;5.25;3.20;;;;;;;4.34;100.00;97470.88;6104992;19;20017;-75
2024/04/17 01:08:28;;;;;;;4.72;3.03;;;;;;;4.30;100.00;97462.59;6103564;19;20002;-76
2024/04/17 01:10:28;;;;;;;4.43;2.95;;;;;;;4.35;100.00;97469.72;6104090;19;20640;-76
2024/04/17 01:12:28;;;;;;;5.63;3.67;;;;;;;4.29;100.00;97469.22;6106766;19;20003;-78
2024/04/17 01:14:28;;;;;;;5.72;3.65;;;;;;;4.25;100.00;97465.63;6106307;19;20019;-77
2024/04/17 01:16:29;;;;;;;5.13;3.47;;;;;;;4.28;100.00;97464.09;6107240;19;20011;-76
2024/04/17 01:18:30;;;;;;;5.18;3.78;;;;;;;4.27;100.00;97468.78;6105792;19;20007;-76
2024/04/17 01:20:30;;;;;;;5.15;3.30;;;;;;;4.29;100.00;97466.47;6105915;19;20631;-76
2024/04/17 01:22:31;;;;;;;4.82;3.50;;;;;;;4.26;100.00;97463.69;6106899;19;20315;-77
2024/04/17 01:24:31;;;;;;;5.85;3.67;;;;;;;4.15;100.00;97469.75;6106993;19;19998;-76
2024/04/17 01:26:32;;;;;;;4.47;3.13;;;;;;;4.18;100.00;97466.28;6105679;19;19998;-75
2024/04/17 01:28:32;;;;;;;5.03;3.55;;;;;;;4.21;100.00;97464.75;6105871;19;20010;-76
2024/04/17 01:30:32;;;;;;;4.68;2.90;;;;;;;4.22;100.00;97469.09;6105103;19;20006;-76
2024/04/17 01:32:33;;;;;;;5.20;3.58;;;;;;;4.20;100.00;97466.69;6104038;19;20009;-76
2024/04/17 01:34:33;;;;;;;5.03;2.75;;;;;;;4.27;100.00;97466.06;6105737;19;20016;-75
2024/04/17 01:36:33;;;;;;;4.80;2.90;;;;;;;4.40;100.00;97474.94;6103934;19;20014;-76
2024/04/17 01:38:34;;;;;;;5.35;3.42;;;;;;;4.38;100.00;97469.78;6105163;19;20002;-75
2024/04/17 01:40:34;;;;;;;5.20;3.55;;;;;;;4.42;100.00;97464.41;6100028;19;20013;-76
2024/04/17 01:42:34;;;;;;;4.10;2.90;;;;;;;4.32;100.00;97465.00;6096851;19;20448;-76
2024/04/17 01:44:34;;;;;;;4.45;3.05;;;;;;;4.18;100.00;97468.22;6097786;19;20086;-75
2024/04/17 01:46:35;;;;;;;6.68;3.45;;;;;;;4.21;100.00;97475.72;6095919;19;20024;-75
2024/04/17 01:48:35;;;;;;;5.43;3.58;;;;;;;4.21;100.00;97475.72;6100053;19;20294;-76
2024/04/17 01:50:35;;;;;;;5.00;3.55;;;;;;;4.14;100.00;97487.31;6098206;19;20003;-76
2024/04/17 01:52:36;;;;;;;5.15;3.45;;;;;;;4.05;100.00;97481.25;6099174;19;20018;-75
2024/04/17 01:54:36;;;;;;;4.65;3.00;;;;;;;4.00;100.00;97473.34;6099710;19;20042;-76
2024/04/17 01:56:37;;;;;;;4.78;3.25;;;;;;;4.15;100.00;97479.91;6103905;19;20002;-75
2024/04/17 01:58:37;;;;;;;4.95;2.97;;;;;;;4.05;100.00;97481.25;6104219;19;20011;-76
2024/04/17 02:00:38;;;;;;;5.95;3.20;;;;;;;4.01;100.00;97482.34;6104309;19;20097;-76
2024/04/17 02:02:38;;;;;;;5.50;3.97;;;;;;;4.10;100.00;97485.66;6105850;19;20013;-76
2024/04/17 02:04:39;;;;;;;5.18;3.30;;;;;;;4.14;100.00;97489.28;6102533;19;20006;-75
2024/04/17 02:06:39;;;;;;;5.70;3.28;;;;;;;4.08;100.00;97487.97;6102777;19;20010;-76
2024/04/17 02:08:39;;;;;;;4.10;3.10;;;;;;;4.03;100.00;97493.72;6104193;19;20307;-76
2024/04/17 02:10:39;;;;;;;4.47;3.20;;;;;;;4.08;100.00;97487.97;6100037;19;20215;-76
2024/04/17 02:12:40;;;;;;;4.68;3.20;;;;;;;3.99;100.00;97493.66;6104977;19;20003;-77
2024/04/17 02:14:40;;;;;;;5.32;3.05;;;;;;;3.99;100.00;97487.38;6101616;19;20097;-75
2024/04/17 02:16:40;;;;;;;4.50;2.85;;;;;;;3.96;100.00;97491.59;6102148;19;20020;-76
2024/04/17 02:18:41;;;;;;;7.10;4.20;;;;;;;3.97;100.00;97497.88;6103054;19;20014;-76
2024/04/17 02:20:41;;;;;;;5.20;3.05;;;;;;;3.96;100.00;97494.34;6101860;19;20011;-76
2024/04/17 02:22:41;;;;;;;3.67;2.67;;;;;;;3.92;100.00;97504.44;6102996;19;20011;-76
2024/04/17 02:24:42;;;;;;;5.65;3.60;;;;;;;4.02;100.00;97500.34;6101262;19;20031;-76
2024/04/17 02:26:42;;;;;;;5.30;3.70;;;;;;;3.99;100.00;97498.34;6101479;19;20014;-76
2024/04/17 02:28:42;;;;;;;4.55;3.40;;;;;;;3.92;100.00;97504.44;6103407;19;20190;-76
2024/04/17 02:30:43;;;;;;;5.32;3.25;;;;;;;3.88;100.00;97503.56;6100490;19;20007;-75
2024/04/17 02:32:43;;;;;;;6.07;3.13;;;;;;;3.83;100.00;97507.38;6102139;19;20015;-75
2024/04/17 02:34:43;;;;;;;3.97;2.80;;;;;;;3.81;100.00;97509.69;6102114;19;20605;-75
2024/04/17 02:36:44;;;;;;;5.38;2.95;;;;;;;3.81;100.00;97517.91;6101637;19;20011;-76
2024/04/17 02:38:44;;;;;;;4.75;3.20;;;;;;;3.79;100.00;97500.22;6103533;19;20514;-76
2024/04/17 02:40:44;;;;;;;4.80;3.33;;;;;;;3.80;100.00;97501.81;6105868;19;20032;-76
2024/04/17 02:42:44;;;;;;;6.80;3.03;;;;;;;3.82;100.00;97503.06;6110019;19;20010;-75
2024/04/17 02:44:45;;;;;;;5.43;2.92;;;;;;;3.87;100.00;97502.75;6112752;19;20015;-76
2024/04/17 02:46:46;;;;;;;4.43;3.08;;;;;;;3.89;100.00;97508.69;6109780;19;20010;-75
2024/04/17 02:48:46;;;;;;;5.30;3.03;;;;;;;3.89;100.00;97510.63;6111321;19;20015;-76
2024/04/17 02:50:46;;;;;;;4.25;2.80;;;;;;;3.88;100.00;97517.22;6111917;19;20011;-76
2024/04/17 02:52:46;;;;;;;4.30;3.22;;;;;;;3.87;100.00;97529.34;6110590;19;20023;-76
2024/04/17 02:54:47;;;;;;;4.65;3.03;;;;;;;3.81;100.00;97517.91;6112332;19;20457;-76
2024/04/17 02:56:47;;;;;;;5.60;3.60;;;;;;;3.83;100.00;97521.06;6111605;19;20899;-76
2024/04/17 02:58:47;;;;;;;7.93;3.90;;;;;;;3.82;100.00;97521.41;6109616;19;20016;-76
2024/04/17 03:00:48;;;;;;;5.72;3.50;;;;;;;3.79;100.00;97519.38;6111734;19;20018;-76
2024/04/17 03:02:48;;;;;;;5.07;3.58;;;;;;;3.77;100.00;97529.91;6111520;19;20081;-76
2024/04/17 03:04:49;;;;;;;5.35;3.28;;;;;;;3.78;100.00;97528.75;6110601;19;20583;-75
2024/04/17 03:06:49;;;;;;;7.38;4.13;;;;;;;3.78;100.00;97520.53;6109069;19;20041;-76
2024/04/17 03:08:51;;;;;;;9.30;4.38;;;;;;;3.74;100.00;97525.94;6111519;19;20022;-75
2024/04/17 03:11:00;;;;;;;5.13;3.83;;;;;;;3.76;100.00;97520.09;6108335;19;20030;-75
2024/04/17 03:13:00;;;;;;;5.80;3.97;;;;;;;3.75;100.00;97522.06;6110973;19;20011;-75
2024/04/17 03:15:01;;;;;;;8.07;3.88;;;;;;;3.79;100.00;97524.84;6108106;19;20743;-75
2024/04/17 03:17:01;;;;;;;5.80;3.50;;;;;;;3.84;100.00;97524.59;6110294;19;20354;-76
2024/04/17 03:19:02;;;;;;;5.53;3.53;;;;;;;3.84;100.00;97528.13;6110832;19;20010;-76
2024/04/17 03:21:02;;;;;;;6.45;3.65;;;;;;;3.85;100.00;97529.69;6108306;19;20018;-76
2024/04/17 03:23:04;;;;;;;5.47;3.72;;;;;;;3.86;100.00;97533.22;6110919;19;20017;-75
2024/04/17 03:25:04;;;;;;;6.87;4.30;;;;;;;3.89;100.00;97533.31;6111734;19;20018;-76
2024/04/17 03:27:05;;;;;;;6.25;4.03;;;;;;;3.95;100.00;97537.34;6107636;19;20471;-76
2024/04/17 03:29:05;;;;;;;4.55;3.47;;;;;;;3.90;100.00;97528.63;6110201;19;20471;-76
2024/04/17 03:31:05;;;;;;;7.18;4.30;;;;;;;3.92;100.00;97538.06;6110146;19;20032;-75
2024/04/17 03:33:06;;;;;;;10.98;4.82;;;;;;;3.92;100.00;97546.28;6109369;19;20015;-76
2024/04/17 03:35:08;;;;;;;6.38;3.90;;;;;;;3.99;100.00;97542.91;6109947;19;20030;-76
2024/04/17 03:37:08;;;;;;;7.30;4.10;;;;;;;4.04;100.00;97541.81;6108221;19;20262;-76
2024/04/17 03:39:08;;;;;;;7.03;4.03;;;;;;;3.90;100.00;97539.59;6110037;19;20553;-76
2024/04/17 03:41:09;;;;;;;5.72;3.97;;;;;;;3.81;100.00;97537.03;6110075;19;20006;-76
2024/04/17 03:43:09;;;;;;;6.13;4.05;;;;;;;3.86;100.00;97539.50;6111063;19;20547;-76
2024/04/17 03:45:09;;;;;;;6.90;3.95;;;;;;;3.83;100.00;97539.41;6108684;19;19999;-76
2024/04/17 03:47:10;;;;;;;8.63;4.40;;;;;;;3.80;100.00;97540.13;6109034;19;20007;-75
2024/04/17 03:49:10;;;;;;;6.70;3.83;;;;;;;3.78;100.00;97547.91;6109045;19;20006;-75
2024/04/17 03:51:10;;;;;;;7.35;4.10;;;;;;;3.73;100.00;97545.44;6109672;19;20030;-75
2024/04/17 03:53:10;;;;;;;6.88;4.30;;;;;;;3.71;100.00;97543.03;6108313;19;20002;-75
2024/04/17 03:55:11;;;;;;;6.68;4.50;;;;;;;3.67;100.00;97542.19;6110309;19;20006;-76
2024/04/17 03:57:11;;;;;;;6.95;4.82;;;;;;;3.67;100.00;97542.97;6107181;19;20031;-77
2024/04/17 03:59:12;;;;;;;6.78;4.65;;;;;;;3.70;100.00;97554.34;6107541;19;20006;-77
2024/04/17 04:01:13;;;;;;;8.43;5.18;;;;;;;3.69;100.00;97556.28;6108821;19;20010;-76
2024/04/17 04:03:13;;;;;;;5.53;3.65;;;;;;;3.67;100.00;97551.19;6108345;19;20011;-76
2024/04/17 04:05:14;;;;;;;6.57;4.72;;;;;;;3.73;100.00;97559.91;6111021;19;20462;-75
2024/04/17 04:07:14;;;;;;;6.78;4.75;;;;;;;3.72;100.00;97552.84;6109772;19;20013;-76
2024/04/17 04:09:14;;;;;;;8.38;4.72;;;;;;;3.71;100.00;97554.00;6108511;19;20010;-75
2024/04/17 04:11:14;;;;;;;8.10;5.15;;;;;;;3.69;100.00;97556.28;6107793;19;20011;-76
2024/04/17 04:13:15;;;;;;;7.97;4.65;;;;;;;3.64;100.00;97549.16;6107644;19;20128;-76
2024/04/17 04:15:15;;;;;;;8.00;5.00;;;;;;;3.60;100.00;97551.00;6109073;19;20002;-76
2024/04/17 04:17:15;;;;;;;9.05;5.10;;;;;;;3.59;100.00;97556.84;6105872;19;20463;-77
2024/04/17 04:19:16;;;;;;;7.03;4.78;;;;;;;3.55;100.00;97556.75;6107930;19;20014;-76
2024/04/17 04:21:16;;;;;;;8.70;4.72;;;;;;;3.56;100.00;97558.34;6105352;19;20002;-76
2024/04/17 04:23:16;;;;;;;8.00;4.85;;;;;;;3.58;100.00;97564.25;6107296;19;20024;-76
2024/04/17 04:25:17;;;;;;;10.93;5.03;;;;;;;3.60;100.00;97561.94;6110124;19;20349;-76
2024/04/17 04:27:17;;;;;;;7.07;4.93;;;;;;;3.57;100.00;97561.88;6106847;19;20404;-76
2024/04/17 04:29:17;;;;;;;7.35;5.03;;;;;;;3.60;100.00;97563.91;6107098;19;20017;-76
2024/04/17 04:31:18;;;;;;;7.55;4.78;;;;;;;3.57;100.00;97568.13;6108832;19;20006;-75
2024/04/17 04:33:18;;;;;;;10.13;5.95;;;;;;;3.57;100.00;97567.34;6109027;19;20002;-75
2024/04/17 04:35:19;;;;;;;7.32;4.68;;;;;;;3.56;100.00;97568.50;6107124;19;20491;-75
2024/04/17 04:37:19;;;;;;;27.55;15.32;;;;;;;3.53;100.00;97575.44;6107464;19;20742;-75
2024/04/17 04:39:20;;;;;;;21.95;13.30;;;;;;;3.58;100.00;97574.41;6107991;19;19999;-76
2024/04/17 04:41:20;;;;;;;12.90;9.00;;;;;;;3.51;100.00;97572.28;6108302;19;20006;-75
2024/04/17 04:43:20;;;;;;;11.02;7.60;;;;;;;3.48;100.00;97580.41;6108986;19;19999;-75
2024/04/17 04:45:20;;;;;;;17.25;10.05;;;;;;;3.51;100.00;97569.53;6106056;19;20419;-77
2024/04/17 04:47:21;;;;;;;11.27;8.27;;;;;;;3.55;100.00;97578.63;6109544;19;20092;-76
2024/04/17 04:49:22;;;;;;;15.30;7.88;;;;;;;3.56;100.00;97572.03;6108050;19;20070;-76
2024/04/17 04:51:22;;;;;;;13.02;7.53;;;;;;;3.58;100.00;97577.13;6105247;19;20357;-76
2024/04/17 04:53:23;;;;;;;12.27;7.22;;;;;;;3.57;100.00;97567.34;6107431;19;20006;-76
2024/04/17 04:55:23;;;;;;;10.25;6.03;;;;;;;3.56;100.00;97572.03;6108804;19;20029;-76
2024/04/17 04:57:23;;;;;;;9.70;5.85;;;;;;;3.52;100.00;97568.41;6107441;19;19994;-76
2024/04/17 04:59:24;;;;;;;10.43;5.32;;;;;;;3.49;100.00;97577.31;6105679;19;20013;-75
2024/04/17 05:01:24;;;;;;;10.75;6.35;;;;;;;3.43;100.00;97578.72;6107130;19;20014;-75
2024/04/17 05:03:24;;;;;;;11.13;6.15;;;;;;;3.41;100.00;97582.97;6108427;19;20425;-76
2024/04/17 05:05:25;;;;;;;10.35;5.70;;;;;;;3.56;100.00;97587.66;6106436;19;19998;-75
2024/04/17 05:07:25;;;;;;;12.05;6.15;;;;;;;3.63;100.00;97587.78;6106501;19;20347;-76
2024/04/17 05:09:26;;;;;;;11.15;7.43;;;;;;;3.53;100.00;97588.34;6106220;19;20518;-76
2024/04/17 05:11:27;;;;;;;11.95;6.10;;;;;;;3.61;100.00;97587.38;6108712;19;20344;-75
2024/04/17 05:13:27;;;;;;;13.38;7.57;;;;;;;3.56;100.00;97585.69;6107882;19;20230;-75
2024/04/17 05:15:27;;;;;;;11.65;6.65;;;;;;;3.60;100.00;97592.03;6104058;19;20010;-75
2024/04/17 05:17:28;;;;;;;12.40;6.63;;;;;;;3.59;100.00;97584.19;6108650;19;20317;-75
2024/04/17 05:19:28;;;;;;;9.15;6.78;;;;;;;3.62;100.00;97583.47;6104897;19;20086;-76
2024/04/17 05:21:28;;;;;;;11.18;5.80;;;;;;;3.66;100.00;97587.91;6105536;19;20048;-76
2024/04/17 05:23:29;;;;;;;11.10;6.25;;;;;;;3.70;100.00;97587.19;6108353;19;20572;-76
2024/04/17 05:25:29;;;;;;;9.45;6.30;;;;;;;3.66;100.00;97595.31;6107814;19;20002;-75
2024/04/17 05:27:29;;;;;;;10.40;6.25;;;;;;;3.60;100.00;97605.72;6105731;19;20010;-76
2024/04/17 05:29:30;;;;;;;11.15;5.78;;;;;;;3.59;100.00;97590.44;6105959;19;20010;-76
2024/04/17 05:31:30;;;;;;;9.75;6.20;;;;;;;3.60;100.00;97602.97;6111995;19;20186;-76
2024/04/17 05:33:31;;;;;;;12.38;5.82;;;;;;;3.62;100.00;97597.94;6113013;19;20006;-76
2024/04/17 05:35:31;;;;;;;9.90;6.40;;;;;;;3.71;100.00;97602.44;6113007;19;20503;-75
2024/04/17 05:37:31;;;;;;;9.20;6.13;;;;;;;3.69;100.00;97596.53;6113787;19;20015;-75
2024/04/17 05:39:32;;;;;;;9.65;6.00;;;;;;;3.72;100.00;97601.28;6102756;19;20002;-76
2024/04/17 05:41:32;;;;;;;8.52;5.60;;;;;;;3.84;100.00;97603.94;6112067;19;20002;-75
2024/04/17 05:43:32;;;;;;;9.82;5.43;;;;;;;3.94;100.00;97600.66;6110624;19;20017;-75
2024/04/17 05:45:33;;;;;;;9.10;5.63;;;;;;;3.94;100.00;97606.91;6112623;19;20082;-75
2024/04/17 05:47:33;;;;;;;9.68;5.55;;;;;;;4.00;100.00;97612.13;6112700;19;20791;-76
2024/04/17 05:49:33;;;;;;;10.75;5.40;;;;;;;4.16;100.00;97615.63;6111567;19;20070;-75
2024/04/17 05:51:33;;;;;;;11.93;5.68;;;;;;;4.15;100.00;97620.31;6113152;19;20114;-75
2024/04/17 05:53:34;;;;;;;14.10;7.50;;;;;;;4.32;100.00;97616.41;6112786;19;20003;-76
2024/04/17 05:55:38;;;;;;;12.13;6.63;;;;;;;4.39;100.00;97616.56;6112976;19;20062;-75
2024/04/17 05:57:38;;;;;;;11.40;6.13;;;;;;;4.49;100.00;97624.19;6110480;19;20220;-75
2024/04/17 05:59:39;;;;;;;11.43;7.50;;;;;;;4.55;100.00;97616.50;6109383;19;20010;-75
2024/04/17 06:01:39;;;;;;;9.80;6.22;;;;;;;4.62;100.00;97618.56;6112425;19;20451;-75
2024/04/17 06:03:39;;;;;;;9.02;5.90;;;;;;;4.60;100.00;97620.88;6112333;19;20014;-75
2024/04/17 06:05:40;;;;;;;9.48;5.90;;;;;;;4.68;100.00;97615.19;6111036;19;20014;-75
2024/04/17 06:07:40;;;;;;;11.95;8.10;;;;;;;4.76;100.00;97613.41;6109152;19;20043;-77
2024/04/17 06:09:41;;;;;;;10.95;7.07;;;;;;;4.79;100.00;97613.44;6110688;19;20333;-75
2024/04/17 06:11:41;;;;;;;15.18;8.27;;;;;;;4.84;100.00;97608.84;6111186;19;20014;-75
2024/04/17 06:13:41;;;;;;;12.00;5.97;;;;;;;4.90;100.00;97610.16;6111672;19;20089;-76
2024/04/17 06:15:42;;;;;;;10.27;6.32;;;;;;;4.93;100.00;97607.47;6112332;19;20078;-75
2024/04/17 06:17:42;;;;;;;8.98;5.82;;;;;;;4.95;100.00;97613.38;6111700;19;20010;-76
2024/04/17 06:19:42;;;;;;;14.93;8.93;;;;;;;5.00;100.00;97618.59;6111835;19;20011;-76
2024/04/17 06:21:42;;;;;;;11.82;6.47;;;;;;;5.05;100.00;97614.75;6109830;19;20050;-76
2024/04/17 06:23:43;;;;;;;10.38;6.25;;;;;;;5.13;100.00;97618.41;6108677;19;20007;-76
2024/04/17 06:25:47;;;;;;;10.52;6.72;;;;;;;5.16;100.00;97617.69;6110385;19;20077;-76
2024/04/17 06:27:48;;;;;;;11.13;6.45;;;;;;;5.23;100.00;97620.59;6108343;19;20074;-75
2024/04/17 06:29:48;;;;;;;10.10;6.22;;;;;;;5.32;100.00;97623.88;6107281;19;20024;-75
2024/04/17 06:31:49;;;;;;;8.15;5.75;;;;;;;5.32;100.00;97618.41;6109551;19;20046;-77
2024/04/17 06:33:49;;;;;;;9.23;5.60;;;;;;;5.36;100.00;97617.28;6108356;19;20518;-75
2024/04/17 06:35:49;;;;;;;8.60;5.28;;;;;;;5.46;100.00;97624.16;6108870;19;20002;-75
2024/04/17 06:37:50;;;;;;;9.45;5.80;;;;;;;5.57;100.00;97627.84;6109441;19;20482;-77
2024/04/17 06:39:51;;;;;;;11.38;6.45;;;;;;;5.64;100.00;97629.94;6104054;19;20041;-76
2024/04/17 06:41:51;;;;;;;10.07;5.82;;;;;;;5.67;100.00;97625.66;6101261;19;20030;-75
2024/04/17 06:43:51;;;;;;;10.90;6.35;;;;;;;5.64;100.00;97633.47;6102289;19;20010;-76
2024/04/17 06:45:52;;;;;;;9.93;6.07;;;;;;;5.64;100.00;97633.47;6100623;19;20002;-75
2024/04/17 06:47:53;;;;;;;10.70;6.65;;;;;;;5.69;100.00;97629.63;6101793;19;20092;-75
2024/04/17 06:49:53;;;;;;;8.75;6.28;;;;;;;5.81;100.00;97636.88;6101591;19;20009;-75
2024/04/17 06:51:53;;;;;;;11.18;5.65;;;;;;;5.95;100.00;97637.13;6102589;19;20102;-76
2024/04/17 06:53:54;;;;;;;9.63;5.55;;;;;;;6.05;100.00;97635.75;6102543;19;20009;-76
2024/04/17 06:55:54;;;;;;;10.57;5.82;;;;;;;6.10;100.00;97636.19;6101449;19;20286;-75
2024/04/17 06:57:54;;;;;;;9.50;5.32;;;;;;;6.23;100.00;97634.06;6099089;19;20086;-75
2024/04/17 06:59:55;;;;;;;8.90;5.22;;;;;;;6.29;100.00;97634.50;6101893;19;20341;-75
2024/04/17 07:01:55;;;;;;;9.23;6.57;;;;;;;6.26;100.00;97627.00;6099244;19;20330;-76
2024/04/17 07:03:55;;;;;;;9.18;6.38;;;;;;;6.24;100.00;97629.34;6101935;19;20015;-75
2024/04/17 07:06:03;;;;;;;8.77;5.70;;;;;;;6.16;100.00;97629.25;6102833;19;20017;-75
2024/04/17 07:08:04;;;;;;;8.18;5.18;;;;;;;6.09;100.00;97634.63;6100848;19;20058;-75
2024/04/17 07:10:05;;;;;;;8.35;5.53;;;;;;;6.09;100.00;97639.31;6101169;19;20002;-75
2024/04/17 07:12:06;;;;;;;8.73;5.03;;;;;;;6.07;100.00;97638.91;6100085;19;20028;-75
2024/04/17 07:14:06;;;;;;;9.63;4.57;;;;;;;5.97;100.00;97637.56;6099639;19;20006;-75
2024/04/17 07:16:07;;;;;;;6.72;4.15;;;;;;;5.86;100.00;97648.34;6101968;19;20017;-75
2024/04/17 07:18:08;;;;;;;8.25;5.20;;;;;;;5.80;100.00;97641.59;6100722;19;20390;-75
2024/04/17 07:20:08;;;;;;;6.72;4.03;;;;;;;5.75;100.00;97643.84;6100416;19;20342;-75
2024/04/17 07:22:09;;;;;;;5.90;3.88;;;;;;;5.61;100.00;97634.19;6088607;19;247106;-76
2024/04/17 07:24:09;;;;;;;6.30;4.30;;;;;;;5.55;100.00;97646.66;6101315;19;20070;-75
2024/04/17 07:26:12;;;;;;;6.05;3.95;;;;;;;5.48;100.00;97643.78;6100588;19;20002;-75
2024/04/17 07:28:12;;;;;;;4.88;2.20;;;;;;;5.47;100.00;97647.69;6101312;19;20031;-75
2024/04/17 07:30:13;;;;;;;7.90;3.08;;;;;;;5.48;100.00;97635.53;6103141;19;20018;-75
2024/04/17 07:32:13;;;;;;;4.32;3.30;;;;;;;5.46;100.00;97646.09;6103269;19;20015;-75
2024/04/17 07:34:13;;;;;;;4.38;3.58;;;;;;;5.45;100.00;97651.91;6101164;19;20074;-75
2024/04/17 07:36:14;;;;;;;5.25;2.75;;;;;;;5.26;100.00;97647.28;6101870;19;20011;-75
2024/04/17 07:38:14;;;;;;;4.35;2.90;;;;;;;5.04;100.00;97652.31;6102162;19;20183;-76
2024/04/17 07:40:14;;;;;;;7.03;3.90;;;;;;;4.98;100.00;97659.28;6101950;19;20003;-75
2024/04/17 07:42:15;;;;;;;6.97;4.50;;;;;;;4.91;100.00;97661.88;6109749;19;19999;-75
2024/04/17 07:44:16;;;;;;;11.02;6.20;;;;;;;4.80;100.00;97660.88;6110210;19;20433;-76
2024/04/17 07:46:16;;;;;;;12.00;7.32;;;;;;;4.75;100.00;97661.13;6109498;19;20074;-75
2024/04/17 07:48:16;;;;;;;8.95;6.32;;;;;;;4.69;100.00;97660.63;6106850;19;20019;-76
2024/04/17 07:50:17;;;;;;;12.02;7.05;;;;;;;4.64;100.00;97654.66;6108774;19;20431;-76
2024/04/17 07:52:17;;;;;;;8.98;5.68;;;;;;;4.62;100.00;97667.88;6108198;19;20037;-76
2024/04/17 07:54:18;;;;;;;6.90;3.17;;;;;;;4.40;100.00;97685.81;6106082;19;20356;-77
2024/04/17 07:56:18;;;;;;;4.43;2.63;;;;;;;3.98;100.00;97678.19;6108482;19;20138;-75
2024/04/17 07:58:18;;;;;;;2.40;1.55;;;;;;;3.45;100.00;97687.75;6109295;19;20074;-77
2024/04/17 08:00:18;;;;;;;3.92;1.90;;;;;;;3.30;100.00;97686.56;6107169;19;20058;-76
2024/04/17 08:02:19;;;;;;;4.47;1.48;;;;;;;3.11;100.00;97692.69;6110247;19;20564;-76
2024/04/17 08:04:20;;;;;;;1.98;1.60;;;;;;;3.07;100.00;97689.09;6107675;19;20002;-77
2024/04/17 08:06:21;;;;;;;2.33;1.50;;;;;;;3.12;100.00;97685.28;6108021;19;19995;-78
2024/04/17 08:08:21;;;;;;;1.27;1.17;;;;;;;3.12;100.00;97690.75;6107263;19;20090;-77
2024/04/17 08:10:21;;;;;;;2.50;1.70;;;;;;;3.07;100.00;97694.56;6107348;19;20086;-76
2024/04/17 08:12:22;;;;;;;2.22;1.77;;;;;;;2.92;100.00;97682.41;6107726;19;20474;-78
2024/04/17 08:14:22;;;;;;;2.78;1.40;;;;;;;2.99;100.00;97688.09;6107379;19;20466;-78
2024/04/17 08:16:23;;;;;;;1.88;1.17;;;;;;;2.94;100.00;97682.84;6108542;19;20010;-76
2024/04/17 08:18:23;;;;;;;2.28;1.38;;;;;;;3.00;100.00;97691.63;6106486;19;20015;-76
2024/04/17 08:20:23;;;;;;;2.13;1.27;;;;;;;3.05;100.00;97692.13;6108758;19;20339;-77
2024/04/17 08:22:24;;;;;;;3.33;2.08;;;;;;;3.08;100.00;97696.13;6109090;19;20314;-77
2024/04/17 08:24:25;;;;;;;2.53;1.92;;;;;;;3.13;100.00;97695.06;6108090;19;20303;-77
2024/04/17 08:26:25;;;;;;;2.50;1.58;;;;;;;3.26;100.00;97686.47;6107554;19;20530;-77
2024/04/17 08:28:26;;;;;;;1.42;1.05;;;;;;;3.33;100.00;97694.88;6107550;19;20029;-77
2024/04/17 08:30:27;;;;;;;2.13;1.50;;;;;;;3.43;100.00;97698.25;6108685;19;20033;-77
2024/04/17 08:32:28;;;;;;;2.53;2.00;;;;;;;3.53;100.00;97695.78;6107623;19;20021;-77
2024/04/17 08:34:28;;;;;;;2.17;1.60;;;;;;;3.68;100.00;97702.44;6106619;19;20473;-77
2024/04/17 08:36:29;;;;;;;11.02;4.45;;;;;;;3.77;100.00;97694.84;6109593;19;20057;-77
2024/04/17 08:38:29;;;;;;;6.35;3.45;;;;;;;3.86;100.00;97700.94;6107865;19;20412;-77
2024/04/17 08:40:30;;;;;;;3.63;1.95;;;;;;;3.83;100.00;97701.66;6108051;19;20002;-76
2024/04/17 08:42:34;;;;;;;2.58;2.00;;;;;;;3.80;100.00;97701.56;6106792;19;20259;-76
2024/04/17 08:44:35;;;;;;;3.88;2.30;;;;;;;3.86;100.00;97692.72;6107537;19;20366;-77
2024/04/17 08:46:36;;;;;;;3.60;2.40;;;;;;;3.98;100.00;97704.75;6108360;19;20003;-76
2024/04/17 08:48:39;;;;;;;2.40;1.98;;;;;;;4.06;100.00;97692.84;6106512;19;20536;-76
2024/04/17 08:50:41;;;;;;;3.50;1.80;;;;;;;4.15;100.00;97701.66;6107523;19;20006;-76
2024/04/17 08:52:43;;;;;;;4.40;2.72;;;;;;;4.18;100.00;97700.94;6105903;19;20043;-77
2024/04/17 08:54:44;;;;;;;2.92;2.25;;;;;;;4.21;100.00;97705.69;6107056;19;20010;-77
2024/04/17 08:56:44;;;;;;;3.05;1.98;;;;;;;4.27;100.00;97703.50;6108317;19;20459;-76
2024/04/17 08:58:45;;;;;;;4.97;3.35;;;;;;;4.30;100.00;97703.56;6106873;19;20415;-77
2024/04/17 09:00:50;;;;;;;3.15;2.10;;;;;;;4.32;100.00;97695.81;6107974;19;20503;-76
2024/04/17 09:02:55;;;;;;;6.13;2.67;;;;;;;4.41;100.00;97699.16;6106136;19;20007;-76
2024/04/17 09:04:57;;;;;;;3.88;2.63;;;;;;;4.47;100.00;97705.16;6107630;19;20030;-77
2024/04/17 09:06:57;;;;;;;5.15;2.70;;;;;;;4.49;100.00;97705.59;6105593;19;20019;-77
2024/04/17 09:09:00;;;;;;;5.80;2.97;;;;;;;4.58;100.00;97694.44;6106586;19;20447;-77
2024/04/17 09:11:02;;;;;;;6.63;3.30;;;;;;;4.69;100.00;97696.25;6107365;19;20007;-76
2024/04/17 09:13:03;;;;;;;7.30;3.05;;;;;;;4.84;100.00;97696.56;6107575;19;20014;-76
2024/04/17 09:15:04;;;;;;;4.75;3.42;;;;;;;4.89;100.00;97694.34;6106773;19;19999;-77
2024/04/17 09:17:04;;;;;;;8.90;4.43;;;;;;;4.93;100.00;97694.41;6107726;19;20003;-76
2024/04/17 09:19:07;;;;;;;6.97;4.25;;;;;;;5.01;100.00;97691.44;6107743;19;20010;-76
2024/04/17 09:21:09;;;;;;;4.90;2.85;;;;;;;5.06;100.00;97696.66;6106374;19;20042;-77
2024/04/17 09:23:10;;;;;;;7.63;3.47;;;;;;;5.15;100.00;97695.66;6105658;19;20007;-77
2024/04/17 09:25:15;;;;;;;7.18;3.45;;;;;;;5.22;100.00;97690.31;6105458;19;20436;-76